Time;durP1;ratioP1;P1;durP2;ratioP2;P2;SDS_P1;SDS_P2;PMS_P1;PMS_P2;Temp;Humidity;BMP_temperature;BMP_pressure;BME280_temperature;BME280_humidity;BME280_pressure;Samples;Min_cycle;Max_cycle;Signal;HPM_P1;HPM_P2
2022/09/05 00:02:01;;;;;;;16.20;14.48;;;;;;;16.96;89.28;68653.03;5031246;28;20043;-76
2022/09/05 00:04:36;;;;;;;16.67;14.88;;;;;;;16.94;89.32;68656.69;5030871;28;20665;-77
2022/09/05 00:07:04;;;;;;;15.77;14.18;;;;;;;;;;5017852;28;20400;-78
2022/09/05 00:10:09;;;;;;;15.77;14.27;;;;;;;16.89;89.53;68651.56;5030390;28;20045;-77
2022/09/05 00:12:34;;;;;;;15.60;14.07;;;;;;;;;;5022144;28;20037;-77
2022/09/05 00:15:28;;;;;;;16.58;14.95;;;;;;;16.83;90.14;68639.34;5029931;28;20611;-77
2022/09/05 00:17:53;;;;;;;17.67;15.77;;;;;;;;;;5031309;28;20025;-76
2022/09/05 00:20:40;;;;;;;17.73;15.03;;;;;;;16.74;90.18;68634.41;5030783;28;20044;-77
2022/09/05 00:23:27;;;;;;;16.23;14.63;;;;;;;16.75;90.02;68635.00;5036010;28;20273;-77
2022/09/05 00:25:55;;;;;;;16.88;15.13;;;;;;;;;;5018124;28;20128;-77
2022/09/05 00:28:48;;;;;;;17.42;15.63;;;;;;;16.71;90.41;68631.00;5030986;28;20049;-78
2022/09/05 00:31:23;;;;;;;17.33;15.68;;;;;;;16.67;90.64;68626.44;5042488;28;20052;-76
2022/09/05 00:34:18;;;;;;;18.77;16.80;;;;;;;16.63;91.04;68616.50;5030320;28;20053;-76
2022/09/05 00:36:47;;;;;;;18.08;16.30;;;;;;;16.59;90.66;68617.88;5029474;28;20112;-78
2022/09/05 00:39:30;;;;;;;18.40;16.60;;;;;;;16.57;91.53;68604.28;5029547;28;20053;-77
2022/09/05 00:41:57;;;;;;;20.33;16.73;;;;;;;;;;5030402;28;20680;-77
2022/09/05 00:44:29;;;;;;;18.65;16.60;;;;;;;16.53;91.24;68611.03;5028541;28;20111;-76
2022/09/05 00:47:05;;;;;;;20.48;16.42;;;;;;;;;;5028634;28;20599;-77
2022/09/05 00:49:41;;;;;;;19.65;17.63;;;;;;;;;;5027226;28;20436;-76
2022/09/05 00:52:35;;;;;;;19.27;16.95;;;;;;;16.43;91.81;68600.22;5023825;28;20042;-77
2022/09/05 00:55:19;;;;;;;20.50;17.58;;;;;;;16.41;91.71;68597.38;5020574;28;20137;-76
2022/09/05 00:57:58;;;;;;;19.58;17.15;;;;;;;;;;5028413;28;20056;-78
2022/09/05 01:00:49;;;;;;;18.25;16.35;;;;;;;16.41;91.55;68597.94;5027691;28;20033;-78
2022/09/05 01:03:33;;;;;;;20.73;16.20;;;;;;;16.35;91.93;68591.09;5038074;28;20041;-77
2022/09/05 01:06:28;;;;;;;19.45;17.55;;;;;;;16.34;91.84;68589.97;5023924;28;20037;-78
2022/09/05 01:09:15;;;;;;;18.85;16.95;;;;;;;16.31;92.50;68585.97;5028728;28;20048;-78
2022/09/05 01:11:43;;;;;;;21.33;18.52;;;;;;;;;;5030302;28;20552;-78
2022/09/05 01:14:46;;;;;;;19.47;17.07;;;;;;;16.24;92.75;68579.13;5025465;28;20048;-78
2022/09/05 01:17:33;;;;;;;18.85;17.05;;;;;;;16.21;92.28;68575.13;5040721;28;20081;-77
2022/09/05 01:20:17;;;;;;;20.15;18.15;;;;;;;16.16;92.63;68569.44;5024467;28;20051;-78
2022/09/05 01:23:08;;;;;;;19.35;17.25;;;;;;;16.10;92.70;68563.16;5029332;28;20128;-77
2022/09/05 01:25:55;;;;;;;19.10;17.10;;;;;;;16.03;93.05;68555.19;5031124;28;20049;-78
2022/09/05 01:28:30;;;;;;;19.13;17.13;;;;;;;;;;5015525;28;20053;-77
2022/09/05 01:31:17;;;;;;;20.10;18.00;;;;;;;15.99;93.25;68545.25;5026612;28;20033;-77
2022/09/05 01:33:48;;;;;;;18.88;17.08;;;;;;;15.97;92.92;68548.34;5022864;28;20863;-78
2022/09/05 01:36:33;;;;;;;19.73;17.83;;;;;;;15.94;93.20;68545.50;5022419;28;20116;-77
2022/09/05 01:39:10;;;;;;;18.85;16.92;;;;;;;15.85;93.31;68535.22;5038791;28;20045;-78
2022/09/05 01:42:02;;;;;;;19.40;17.30;;;;;;;15.82;93.49;68531.81;5026182;28;20061;-78
2022/09/05 01:44:54;;;;;;;19.35;17.35;;;;;;;15.79;93.64;68528.41;5022319;28;20045;-78
2022/09/05 01:47:28;;;;;;;20.67;18.23;;;;;;;15.82;93.69;68526.44;5026206;28;20048;-78
2022/09/05 01:50:03;;;;;;;20.30;18.17;;;;;;;15.78;93.70;68527.25;5024666;28;20555;-77
2022/09/05 01:52:37;;;;;;;19.92;17.92;;;;;;;15.73;93.15;68524.81;5024214;28;20065;-78
2022/09/05 01:55:24;;;;;;;19.52;17.48;;;;;;;15.71;93.43;68514.50;5024143;28;20045;-76
2022/09/05 01:58:12;;;;;;;19.35;17.30;;;;;;;15.72;93.11;68521.00;5033474;22;20050;-76
2022/09/05 02:00:43;;;;;;;20.23;17.92;;;;;;;15.72;93.52;68515.06;5009055;28;20046;-76
2022/09/05 02:03:14;;;;;;;20.75;18.60;;;;;;;;;;5010302;28;20104;-77
2022/09/05 02:05:59;;;;;;;20.58;18.50;;;;;;;;;;5009074;28;20048;-76
2022/09/05 02:08:27;;;;;;;20.17;18.15;;;;;;;15.62;93.92;68509.00;5009710;28;20044;-77
2022/09/05 02:11:00;;;;;;;20.73;18.55;;;;;;;;;;5012724;28;20038;-77
2022/09/05 02:13:32;;;;;;;20.85;18.67;;;;;;;15.54;94.70;68500.47;5009616;28;20453;-77
2022/09/05 02:16:17;;;;;;;19.65;17.52;;;;;;;;;;5022511;28;20037;-77
2022/09/05 02:18:55;;;;;;;20.10;18.20;;;;;;;15.47;94.32;68493.06;5017095;28;20042;-77
2022/09/05 02:21:38;;;;;;;19.77;17.83;;;;;;;15.45;94.35;68492.88;5010576;28;20144;-77
2022/09/05 02:24:11;;;;;;;20.33;18.35;;;;;;;;;;5013940;28;20081;-77
2022/09/05 02:26:56;;;;;;;18.85;17.02;;;;;;;;;;4990688;28;20066;-77
2022/09/05 02:29:54;;;;;;;20.67;18.58;;;;;;;15.35;95.10;68474.03;5003493;28;20080;-77
2022/09/05 02:32:53;;;;;;;19.37;17.47;;;;;;;15.30;95.31;68473.69;5017871;28;20045;-77
2022/09/05 02:35:24;;;;;;;20.52;18.35;;;;;;;15.25;95.36;68462.66;5018011;28;20405;-77
2022/09/05 02:38:00;;;;;;;20.60;18.45;;;;;;;15.21;95.38;68466.13;5008652;28;20046;-77
2022/09/05 02:40:35;;;;;;;20.92;18.73;;;;;;;15.21;95.41;68466.13;5008288;28;20378;-77
2022/09/05 02:43:15;;;;;;;23.08;20.77;;;;;;;15.20;95.66;68456.94;5007082;28;20555;-77
2022/09/05 02:45:50;;;;;;;22.48;20.30;;;;;;;;;;4997719;28;20050;-77
2022/09/05 02:48:44;;;;;;;23.05;20.60;;;;;;;15.09;96.22;68456.28;4990662;28;20050;-77
2022/09/05 02:51:29;;;;;;;22.60;20.25;;;;;;;15.07;96.10;68448.63;5018289;28;20162;-77
2022/09/05 02:54:02;;;;;;;23.33;21.10;;;;;;;15.06;96.53;68446.94;5007151;28;20071;-76
2022/09/05 02:56:44;;;;;;;22.75;20.55;;;;;;;15.00;97.04;68442.78;5008830;28;20034;-77
2022/09/05 02:59:25;;;;;;;22.45;20.25;;;;;;;14.98;96.74;68441.06;5015080;28;20069;-77
2022/09/05 03:02:08;;;;;;;23.90;21.60;;;;;;;15.00;96.60;68440.09;5006757;28;20045;-76
2022/09/05 03:04:46;;;;;;;23.67;21.27;;;;;;;14.97;96.90;68437.25;5007935;28;20042;-76
2022/09/05 03:07:19;;;;;;;22.23;19.92;;;;;;;14.93;97.17;68432.69;4996644;28;20042;-77
2022/09/05 03:10:30;;;;;;;23.33;21.02;;;;;;;14.93;97.43;68432.69;4992344;28;20049;-76
2022/09/05 03:13:37;;;;;;;23.83;21.42;;;;;;;14.93;97.14;68432.69;5004756;28;20493;-77
2022/09/05 03:16:21;;;;;;;22.95;20.55;;;;;;;14.92;97.58;68431.53;5001594;28;20112;-76
2022/09/05 03:19:17;;;;;;;21.80;19.58;;;;;;;14.91;97.18;68430.41;5005923;28;20038;-76
2022/09/05 03:21:42;;;;;;;23.35;20.98;;;;;;;;;;5006720;28;20042;-76
2022/09/05 03:24:34;;;;;;;22.33;20.00;;;;;;;14.93;96.91;68432.69;5007441;28;20107;-76
2022/09/05 03:27:37;;;;;;;23.45;21.25;;;;;;;14.92;97.32;68431.53;5018297;28;20277;-76
2022/09/05 03:30:19;;;;;;;22.95;20.58;;;;;;;14.87;97.50;68426.44;5015755;28;20046;-76
2022/09/05 03:33:20;;;;;;;22.92;20.48;;;;;;;14.91;97.92;68429.84;5008539;28;20050;-76
2022/09/05 03:36:15;;;;;;;22.70;20.30;;;;;;;14.89;97.64;68422.78;5005495;28;20639;-76
2022/09/05 03:39:18;;;;;;;23.05;20.65;;;;;;;14.91;97.30;68430.41;5006524;28;20590;-77
2022/09/05 03:41:55;;;;;;;22.55;20.33;;;;;;;14.95;97.47;68429.03;5011409;28;20061;-77
2022/09/05 03:44:21;;;;;;;22.60;20.35;;;;;;;;;;5006825;28;20073;-76
2022/09/05 03:47:16;;;;;;;22.23;19.92;;;;;;;14.96;97.54;68438.78;5002893;28;20077;-76
2022/09/05 03:50:19;;;;;;;22.75;20.50;;;;;;;14.89;97.64;68428.69;4996494;28;20043;-76
2022/09/05 03:53:03;;;;;;;24.10;21.67;;;;;;;;;;4962625;28;20045;-76
2022/09/05 03:55:32;;;;;;;24.33;21.83;;;;;;;;;;5003301;28;20045;-76
2022/09/05 03:58:12;;;;;;;25.70;22.67;;;;;;;14.84;98.46;68427.78;4996673;28;20050;-76
2022/09/05 04:00:40;;;;;;;24.85;22.35;;;;;;;;;;5000648;28;20045;-76
2022/09/05 04:03:21;;;;;;;26.42;23.85;;;;;;;;;;5005830;28;20405;-77
2022/09/05 04:05:51;;;;;;;25.45;22.75;;;;;;;;;;5002997;28;20056;-77
2022/09/05 04:08:19;;;;;;;25.95;23.17;;;;;;;14.74;97.64;68405.69;5008060;28;20038;-77
2022/09/05 04:11:04;;;;;;;25.92;23.17;;;;;;;14.67;98.78;68406.31;5003519;28;20096;-77
2022/09/05 04:13:52;;;;;;;26.17;23.60;;;;;;;14.69;98.66;68400.00;5003067;28;20034;-77
2022/09/05 04:16:25;;;;;;;25.27;22.85;;;;;;;14.70;98.72;68406.50;4986797;28;20048;-76
2022/09/05 04:19:16;;;;;;;24.10;21.55;;;;;;;14.72;97.82;68414.13;5007936;28;20125;-77
2022/09/05 04:21:50;;;;;;;24.55;21.92;;;;;;;14.68;98.25;68404.78;4999635;28;20104;-76
2022/09/05 04:24:47;;;;;;;23.90;21.50;;;;;;;14.70;98.12;68401.13;5009283;28;20679;-76
2022/09/05 04:27:28;;;;;;;25.50;21.75;;;;;;;14.69;98.05;68405.34;4963297;28;20049;-77
2022/09/05 04:30:00;;;;;;;22.15;20.00;;;;;;;14.68;97.81;68404.22;5006912;28;20049;-76
2022/09/05 04:32:44;;;;;;;22.80;20.60;;;;;;;14.67;97.64;68403.66;5002688;28;20038;-76
2022/09/05 04:35:27;;;;;;;23.27;20.73;;;;;;;;;;4997822;28;20050;-77
2022/09/05 04:37:58;;;;;;;25.10;22.52;;;;;;;14.69;98.12;68405.94;5001821;28;20493;-76
2022/09/05 04:40:35;;;;;;;23.88;21.55;;;;;;;;;;5004643;28;20081;-76
2022/09/05 04:43:08;;;;;;;24.55;22.05;;;;;;;14.65;98.22;68404.63;5001759;28;20452;-76
2022/09/05 04:45:39;;;;;;;25.30;21.40;;;;;;;14.62;99.32;68403.88;4997757;28;20125;-76
2022/09/05 04:48:10;;;;;;;24.45;21.85;;;;;;;14.63;99.24;68399.09;4996353;28;20053;-76
2022/09/05 04:50:57;;;;;;;25.27;22.55;;;;;;;14.66;98.91;68405.75;5001659;28;20066;-76
2022/09/05 04:53:59;;;;;;;24.58;21.90;;;;;;;14.68;99.19;68404.22;4995167;28;20026;-76
2022/09/05 04:56:31;;;;;;;24.75;22.02;;;;;;;;;;5012169;28;20056;-76
2022/09/05 04:59:09;;;;;;;24.38;21.88;;;;;;;14.71;99.63;68408.22;5004897;28;20493;-76
2022/09/05 05:01:47;;;;;;;24.95;22.17;;;;;;;14.74;99.39;68411.63;4996991;28;20038;-76
2022/09/05 05:04:17;;;;;;;24.85;22.25;;;;;;;14.74;99.34;68411.63;5004427;28;20521;-76
2022/09/05 05:07:03;;;;;;;24.42;21.80;;;;;;;14.79;99.09;68417.31;4998561;28;20397;-77
2022/09/05 05:09:32;;;;;;;24.08;21.77;;;;;;;14.83;98.76;68424.53;5005233;28;20572;-77
2022/09/05 05:12:00;;;;;;;24.25;21.75;;;;;;;;;;5005703;28;20123;-77
2022/09/05 05:14:41;;;;;;;23.10;20.77;;;;;;;14.92;98.44;68431.53;5005564;28;20041;-77
2022/09/05 05:17:28;;;;;;;23.27;20.95;;;;;;;14.98;98.35;68438.38;5015501;28;20596;-77
2022/09/05 05:20:07;;;;;;;21.85;19.83;;;;;;;15.00;97.81;68440.66;5007323;28;20038;-77
2022/09/05 05:22:32;;;;;;;;;;;;;;;15.03;97.26;68446.75;5009610;28;20041;-77
2022/09/05 05:24:59;;;;;;;22.73;20.40;;;;;;;;;;5027009;28;20008;-77
2022/09/05 05:27:40;;;;;;;22.23;19.83;;;;;;;;;;5017157;28;20038;-77
2022/09/05 05:30:10;;;;;;;22.35;20.02;;;;;;;15.08;97.50;68452.47;4981931;28;20042;-77
2022/09/05 05:32:41;;;;;;;22.20;19.92;;;;;;;15.11;96.86;68452.63;4996664;28;20491;-77
2022/09/05 05:35:10;;;;;;;23.42;21.02;;;;;;;15.15;96.70;68456.59;5011511;28;20046;-77
2022/09/05 05:37:43;;;;;;;23.08;20.77;;;;;;;15.20;96.95;68462.88;5009053;28;20034;-76
2022/09/05 05:40:15;;;;;;;23.23;19.88;;;;;;;15.23;96.77;68460.34;5012124;28;20061;-77
2022/09/05 05:42:41;;;;;;;24.50;19.05;;;;;;;;;;5006381;28;20046;-77
2022/09/05 05:45:23;;;;;;;23.98;19.42;;;;;;;;;;5007907;28;20132;-77
2022/09/05 05:47:54;;;;;;;22.10;19.70;;;;;;;15.30;96.17;68476.94;5008590;28;20046;-77
2022/09/05 05:51:02;;;;;;;23.17;20.77;;;;;;;15.38;95.94;68482.22;5013180;28;20053;-76
2022/09/05 05:53:27;;;;;;;22.10;19.90;;;;;;;;;;5020876;28;20076;-77
2022/09/05 05:56:21;;;;;;;20.73;18.52;;;;;;;15.63;94.94;68513.41;5009739;28;20038;-77
2022/09/05 05:58:59;;;;;;;21.58;19.27;;;;;;;;;;5003589;28;20394;-77
2022/09/05 06:01:49;;;;;;;21.67;19.27;;;;;;;15.91;93.49;68542.09;5008038;28;20125;-77
2022/09/05 06:04:14;;;;;;;20.35;18.15;;;;;;;;;;5015760;28;20045;-77
2022/09/05 06:06:58;;;;;;;21.43;19.13;;;;;;;;;;5007764;28;20050;-77
2022/09/05 06:09:42;;;;;;;21.23;19.02;;;;;;;;;;5009808;28;20277;-77
2022/09/05 06:12:07;;;;;;;23.42;20.02;;;;;;;;;;5023211;28;20409;-77
2022/09/05 06:15:05;;;;;;;25.00;19.40;;;;;;;;;;5009968;28;20053;-76
2022/09/05 06:17:34;;;;;;;20.90;18.80;;;;;;;;;;4997117;28;20701;-76
2022/09/05 06:20:28;;;;;;;21.05;18.92;;;;;;;16.56;90.88;68614.47;5009568;28;20585;-77
2022/09/05 06:23:12;;;;;;;20.15;17.95;;;;;;;;;;5014762;28;20520;-76
2022/09/05 06:25:59;;;;;;;22.50;19.55;;;;;;;16.79;90.18;68640.13;5007807;28;20630;-76
2022/09/05 06:29:20;;;;;;;22.27;19.80;;;;;;;16.92;90.19;68654.97;4995549;28;20041;-76
2022/09/05 06:31:59;;;;;;;21.83;19.48;;;;;;;;;;4966826;28;20427;-76
2022/09/05 06:35:01;;;;;;;22.38;19.33;;;;;;;17.19;88.84;68686.75;4978619;28;20436;-76
2022/09/05 06:38:06;;;;;;;21.75;19.27;;;;;;;17.40;88.30;68707.44;4992170;28;20042;-78
2022/09/05 06:40:31;;;;;;;22.17;19.98;;;;;;;;;;4970150;28;20052;-80
2022/09/05 06:42:59;;;;;;;22.67;18.80;;;;;;;;;;5009348;28;20056;-77
2022/09/05 06:45:56;;;;;;;21.50;19.15;;;;;;;17.84;86.14;68759.81;5002834;28;20042;-78
2022/09/05 06:48:42;;;;;;;25.90;19.75;;;;;;;18.00;84.99;68769.97;5002938;28;21817;-76
2022/09/05 06:51:26;;;;;;;20.60;18.23;;;;;;;18.18;84.73;68795.38;5019405;28;20096;-76
2022/09/05 06:53:51;;;;;;;24.35;19.98;;;;;;;18.34;83.84;68813.03;4997257;28;20043;-77
2022/09/05 06:56:34;;;;;;;22.80;19.50;;;;;;;18.51;83.35;68825.94;5009902;28;20053;-76
2022/09/05 06:59:09;;;;;;;21.13;18.23;;;;;;;;;;4994375;28;20050;-77
2022/09/05 07:01:41;;;;;;;20.13;18.02;;;;;;;;;;4998789;28;20548;-76
2022/09/05 07:04:22;;;;;;;20.52;18.00;;;;;;;18.91;80.92;68871.06;5009736;28;20041;-76
2022/09/05 07:07:09;;;;;;;19.95;17.75;;;;;;;19.00;80.69;68886.72;5007000;28;20037;-76
2022/09/05 07:09:40;;;;;;;22.83;17.63;;;;;;;;;;5006318;28;20127;-77
2022/09/05 07:12:25;;;;;;;18.67;16.70;;;;;;;19.30;80.01;68923.13;4989110;28;20074;-78
2022/09/05 07:15:15;;;;;;;19.98;16.23;;;;;;;19.50;78.83;68934.03;4989029;28;20054;-77
2022/09/05 07:17:47;;;;;;;22.52;17.38;;;;;;;;;;5000218;28;20048;-77
2022/09/05 07:20:39;;;;;;;18.48;15.80;;;;;;;19.80;77.06;68965.09;5009420;28;20046;-77
2022/09/05 07:23:42;;;;;;;17.10;15.02;;;;;;;19.90;76.40;68987.31;5005550;28;20136;-78
2022/09/05 07:26:09;;;;;;;17.00;15.23;;;;;;;;;;5019265;28;20046;-77
2022/09/05 07:28:40;;;;;;;16.20;14.50;;;;;;;20.23;76.08;69018.50;4996250;28;20598;-78
2022/09/05 07:31:19;;;;;;;16.17;14.48;;;;;;;20.38;74.82;69035.66;5008524;28;20069;-77
2022/09/05 07:33:47;;;;;;;18.23;13.73;;;;;;;20.53;73.48;69052.25;5005041;28;20034;-77
2022/09/05 07:36:36;;;;;;;15.10;13.32;;;;;;;;;;5006425;28;20137;-80
2022/09/05 07:39:02;;;;;;;14.75;13.10;;;;;;;;;;5004124;28;20053;-79
2022/09/05 07:41:30;;;;;;;18.42;13.07;;;;;;;20.94;71.57;69098.00;5007578;28;20042;-77
2022/09/05 07:44:07;;;;;;;13.50;12.07;;;;;;;21.11;71.50;69116.88;5006667;28;20038;-77
2022/09/05 07:46:38;;;;;;;15.77;11.02;;;;;;;21.27;70.74;69135.19;5007020;28;20096;-80
2022/09/05 07:49:11;;;;;;;14.00;10.05;;;;;;;;;;5004725;28;20445;-77
2022/09/05 07:51:42;;;;;;;12.43;9.82;;;;;;;21.62;68.85;69171.41;5010259;28;20038;-78
2022/09/05 07:54:19;;;;;;;9.98;8.25;;;;;;;21.72;67.48;69190.97;5013535;28;20053;-78
2022/09/05 07:56:52;;;;;;;9.90;7.63;;;;;;;21.89;67.20;69203.84;5038358;23;20017;-77
2022/09/05 07:59:21;;;;;;;9.85;6.82;;;;;;;21.93;66.54;69208.44;5048515;28;20517;-77
2022/09/05 08:01:48;;;;;;;10.82;6.72;;;;;;;;;;5048147;28;20044;-77
2022/09/05 08:04:27;;;;;;;10.20;6.32;;;;;;;22.22;65.51;69238.97;5051716;28;20045;-77
2022/09/05 08:06:54;;;;;;;10.65;6.57;;;;;;;;;;5049126;28;20049;-77
2022/09/05 08:09:32;;;;;;;9.77;5.57;;;;;;;22.34;64.18;69260.25;5049021;28;20122;-78
2022/09/05 08:12:00;;;;;;;11.75;7.00;;;;;;;;;;5031748;28;20037;-77
2022/09/05 08:14:25;;;;;;;8.07;5.97;;;;;;;22.39;64.48;69260.00;5033286;28;20424;-77
2022/09/05 08:16:51;;;;;;;9.43;5.88;;;;;;;22.51;63.42;69274.28;5031737;28;20049;-77
2022/09/05 08:19:25;;;;;;;10.20;6.50;;;;;;;22.56;63.36;69278.88;5036749;28;20140;-77
2022/09/05 08:21:52;;;;;;;12.05;6.90;;;;;;;22.55;62.87;69275.59;5048813;28;20491;-77
2022/09/05 08:24:25;;;;;;;6.53;4.60;;;;;;;;;;5031535;28;20515;-77
2022/09/05 08:26:56;;;;;;;5.88;4.80;;;;;;;22.77;61.96;69302.38;5031815;28;20101;-77
2022/09/05 08:29:36;;;;;;;8.23;5.07;;;;;;;22.75;61.29;69300.63;5032558;28;20053;-77
2022/09/05 08:32:07;;;;;;;6.32;4.32;;;;;;;22.91;61.34;69316.25;5031891;28;20048;-77
2022/09/05 08:34:51;;;;;;;7.22;3.92;;;;;;;23.00;60.61;69328.72;5035565;28;20048;-77
2022/09/05 08:37:24;;;;;;;5.38;3.65;;;;;;;23.17;60.11;69347.63;5060817;28;20041;-77
2022/09/05 08:40:00;;;;;;;5.25;3.60;;;;;;;23.26;59.80;69363.38;5039459;28;20064;-77
2022/09/05 08:43:12;;;;;;;8.70;3.38;;;;;;;23.51;58.32;69385.44;5042802;28;20069;-77
2022/09/05 08:45:56;;;;;;;7.47;4.03;;;;;;;23.49;57.37;69381.00;5048583;28;20660;-77
2022/09/05 08:48:41;;;;;;;4.75;3.40;;;;;;;;;;5038539;28;20041;-77
2022/09/05 08:51:18;;;;;;;6.28;3.83;;;;;;;23.71;57.15;69407.81;5018754;28;20507;-77
2022/09/05 08:53:57;;;;;;;7.63;3.90;;;;;;;23.81;56.88;69416.56;5022760;28;20033;-77
2022/09/05 08:56:48;;;;;;;5.93;3.97;;;;;;;24.07;56.26;69448.50;5033382;28;20049;-77
2022/09/05 08:59:31;;;;;;;5.72;3.58;;;;;;;24.18;54.56;69461.13;5029809;28;20048;-79
2022/09/05 09:02:31;;;;;;;6.50;3.60;;;;;;;24.30;55.91;69474.31;5040243;28;20107;-77
2022/09/05 09:05:06;;;;;;;7.10;3.33;;;;;;;24.56;53.56;69503.00;5030471;28;20045;-77
2022/09/05 09:07:42;;;;;;;5.50;3.42;;;;;;;24.81;53.28;69528.94;5030504;28;20408;-79
2022/09/05 09:10:30;;;;;;;5.35;3.50;;;;;;;24.90;53.06;69536.53;5032587;28;20737;-80
2022/09/05 09:13:07;;;;;;;7.55;3.75;;;;;;;24.81;53.39;69528.38;5037289;28;20037;-80
2022/09/05 09:15:43;;;;;;;5.43;3.67;;;;;;;24.93;53.00;69544.84;5044649;28;20069;-80
2022/09/05 09:18:14;;;;;;;5.43;3.00;;;;;;;25.21;52.87;69576.44;5050146;28;20056;-78
2022/09/05 09:20:55;;;;;;;5.60;2.97;;;;;;;25.46;51.53;69599.06;5045852;28;20049;-79
2022/09/05 09:23:42;;;;;;;8.02;2.55;;;;;;;25.50;50.21;69606.41;5052606;28;20084;-78
2022/09/05 09:26:15;;;;;;;5.88;2.90;;;;;;;25.55;49.81;69614.88;5039071;28;20045;-79
2022/09/05 09:28:44;;;;;;;4.18;2.40;;;;;;;25.58;49.86;69623.19;5044267;28;20191;-79
2022/09/05 09:31:15;;;;;;;5.75;2.42;;;;;;;25.60;50.13;69620.03;5044638;28;20535;-80
2022/09/05 09:33:47;;;;;;;4.00;2.53;;;;;;;25.57;49.67;69611.69;5038000;28;20033;-78
2022/09/05 09:36:35;;;;;;;7.13;2.45;;;;;;;;;;5053081;28;20124;-79
2022/09/05 09:39:09;;;;;;;4.65;2.40;;;;;;;26.02;48.89;69667.69;5034832;28;20428;-79
2022/09/05 09:41:57;;;;;;;6.65;2.97;;;;;;;26.03;48.68;69663.38;5028122;28;20029;-78
2022/09/05 09:45:01;;;;;;;5.60;2.47;;;;;;;26.12;48.61;69678.59;5042799;28;20041;-79
2022/09/05 09:47:47;;;;;;;6.00;2.35;;;;;;;26.32;48.10;69696.09;5038508;28;20126;-79
2022/09/05 09:50:24;;;;;;;6.07;2.90;;;;;;;26.22;47.41;69690.06;5036667;28;20370;-78
2022/09/05 09:53:12;;;;;;;5.03;2.40;;;;;;;26.33;48.85;69699.97;5019298;28;20042;-79
2022/09/05 09:55:59;;;;;;;4.85;2.90;;;;;;;26.56;47.85;69722.53;5039210;28;20037;-79
2022/09/05 09:58:28;;;;;;;4.82;2.45;;;;;;;26.82;47.07;69751.81;5024638;28;20555;-79
2022/09/05 10:01:24;;;;;;;4.53;2.22;;;;;;;27.01;46.25;69779.09;5024753;28;20449;-80
2022/09/05 10:03:56;;;;;;;6.20;2.28;;;;;;;27.03;45.35;69775.34;5022106;28;20046;-78
2022/09/05 10:06:58;;;;;;;4.10;1.98;;;;;;;27.13;45.22;69786.84;5027905;28;20033;-79
2022/09/05 10:09:46;;;;;;;5.82;2.30;;;;;;;27.00;44.61;69772.47;5044705;28;20094;-79
2022/09/05 10:12:42;;;;;;;6.75;2.00;;;;;;;26.91;44.85;69767.03;5056324;28;20045;-79
2022/09/05 10:15:26;;;;;;;4.60;2.10;;;;;;;26.86;43.96;69758.56;5027556;28;20049;-79
2022/09/05 10:18:19;;;;;;;4.43;2.00;;;;;;;26.93;43.35;69764.44;5021748;28;20046;-78
2022/09/05 10:21:13;;;;;;;5.75;1.90;;;;;;;26.96;43.86;69770.06;5030692;28;20038;-79
2022/09/05 10:24:10;;;;;;;3.22;1.90;;;;;;;27.22;43.50;69802.66;5027955;28;20527;-79
2022/09/05 10:27:18;;;;;;;8.57;2.10;;;;;;;27.47;43.85;69829.66;5035495;28;20128;-78
2022/09/05 10:30:09;;;;;;;9.23;2.58;;;;;;;27.50;41.81;69833.69;5042384;28;20048;-79
2022/09/05 10:32:53;;;;;;;3.53;1.83;;;;;;;27.43;42.32;69820.19;5025434;28;20041;-79
2022/09/05 10:35:18;;;;;;;3.47;1.70;;;;;;;;;;5048736;28;20101;-79
2022/09/05 10:37:49;;;;;;;2.88;2.00;;;;;;;27.57;40.93;69835.69;5032438;28;20045;-79
2022/09/05 10:40:20;;;;;;;3.88;1.60;;;;;;;27.58;40.94;69837.41;5042092;28;20040;-79
2022/09/05 10:42:50;;;;;;;6.32;2.10;;;;;;;27.60;40.23;69842.44;5034540;28;20040;-79
2022/09/05 10:45:26;;;;;;;2.90;1.88;;;;;;;27.40;41.48;69820.03;5033465;28;20410;-79
2022/09/05 10:48:12;;;;;;;3.10;1.85;;;;;;;27.71;41.49;69851.19;5044034;28;20476;-79
2022/09/05 10:50:43;;;;;;;4.93;2.05;;;;;;;27.78;39.76;69859.25;5032203;28;20386;-79
2022/09/05 10:53:19;;;;;;;4.78;1.90;;;;;;;27.80;39.45;69862.16;5030574;28;20065;-79
2022/09/05 10:55:57;;;;;;;7.28;1.98;;;;;;;28.17;39.72;69906.25;5029138;28;20064;-78
2022/09/05 10:58:42;;;;;;;;;;;;;;;28.25;38.95;69917.59;5031092;28;20052;-79
2022/09/05 11:01:24;;;;;;;3.08;1.90;;;;;;;27.86;40.05;69871.78;5030412;28;19999;-79
2022/09/05 11:04:02;;;;;;;4.70;1.70;;;;;;;27.83;38.83;69867.75;5030539;28;20048;-79
2022/09/05 11:06:45;;;;;;;;;;;;;;;27.85;39.41;69867.31;5034649;28;20425;-79
2022/09/05 11:09:28;;;;;;;2.72;1.70;;;;;;;28.24;38.53;69913.72;5030393;28;19996;-79
2022/09/05 11:12:05;;;;;;;3.58;1.60;;;;;;;28.02;38.94;69889.56;5030110;28;20155;-79
2022/09/05 11:14:43;;;;;;;4.20;1.88;;;;;;;28.34;37.85;69922.50;5027801;28;20056;-79
2022/09/05 11:17:21;;;;;;;4.38;1.90;;;;;;;28.15;36.93;69903.38;5027769;28;20037;-79
2022/09/05 11:20:11;;;;;;;4.20;1.88;;;;;;;27.92;37.52;69878.09;5024716;28;20113;-78
2022/09/05 11:22:38;;;;;;;2.50;1.50;;;;;;;28.23;37.06;69910.41;5029329;28;20029;-79
2022/09/05 11:25:17;;;;;;;3.50;1.65;;;;;;;28.36;36.83;69924.78;5025304;28;20196;-78
2022/09/05 11:27:46;;;;;;;3.85;1.60;;;;;;;28.42;35.69;69934.44;5027903;28;20064;-79
2022/09/05 11:30:20;;;;;;;3.95;1.88;;;;;;;28.39;36.50;69928.22;5037254;28;20037;-79
2022/09/05 11:33:11;;;;;;;4.93;1.83;;;;;;;28.16;36.90;69899.06;5033706;28;20053;-79
2022/09/05 11:35:47;;;;;;;3.75;1.60;;;;;;;27.91;36.87;69879.69;5039486;28;20538;-79
2022/09/05 11:38:30;;;;;;;4.72;2.05;;;;;;;27.77;38.32;69858.69;5048176;28;20523;-79
2022/09/05 11:40:56;;;;;;;4.72;2.25;;;;;;;27.79;39.08;69860.97;5044369;28;20380;-79
2022/09/05 11:43:54;;;;;;;3.92;1.90;;;;;;;27.95;38.48;69878.81;5031455;28;20049;-79
2022/09/05 11:46:27;;;;;;;2.95;2.00;;;;;;;28.35;39.49;69929.13;5048916;28;20522;-79
2022/09/05 11:49:16;;;;;;;4.45;1.75;;;;;;;28.68;38.48;69960.44;5033958;28;20503;-78
2022/09/05 11:51:56;;;;;;;3.10;1.67;;;;;;;28.81;37.56;69980.88;5028071;28;20585;-78
2022/09/05 11:54:30;;;;;;;3.38;1.45;;;;;;;28.93;36.13;69989.19;5040479;28;20045;-79
2022/09/05 11:57:15;;;;;;;3.95;1.65;;;;;;;29.00;36.85;69996.66;5039483;28;20048;-79
2022/09/05 11:59:59;;;;;;;3.15;1.95;;;;;;;29.11;35.79;70009.34;5041760;28;20069;-79
2022/09/05 12:02:35;;;;;;;3.50;1.42;;;;;;;29.01;35.33;69998.41;5023229;28;20325;-79
2022/09/05 12:05:14;;;;;;;2.08;1.40;;;;;;;29.03;35.18;70005.63;5036693;28;20088;-79
2022/09/05 12:08:04;;;;;;;2.88;1.70;;;;;;;29.14;35.39;70015.53;5050704;28;20045;-79
2022/09/05 12:11:04;;;;;;;3.47;1.85;;;;;;;29.24;35.54;70023.72;5040084;28;20045;-80
2022/09/05 12:13:34;;;;;;;2.50;1.40;;;;;;;;;;5042171;28;20524;-80
2022/09/05 12:16:06;;;;;;;2.80;1.73;;;;;;;29.31;35.67;70031.19;5028732;28;20041;-80
2022/09/05 12:18:50;;;;;;;3.10;1.35;;;;;;;29.54;35.60;70054.34;5029120;28;20040;-80
2022/09/05 12:21:32;;;;;;;3.03;1.67;;;;;;;29.56;35.21;70057.22;5042664;28;20045;-80
2022/09/05 12:24:06;;;;;;;4.07;1.48;;;;;;;29.76;34.39;70081.84;5028191;28;20436;-80
2022/09/05 12:27:03;;;;;;;4.10;1.42;;;;;;;29.86;34.13;70093.91;5028694;28;20045;-80
2022/09/05 12:29:35;;;;;;;2.53;1.63;;;;;;;30.01;33.78;70107.28;5040557;28;20037;-80
2022/09/05 12:32:03;;;;;;;4.10;1.88;;;;;;;30.28;34.37;70141.13;5027490;28;20538;-81
2022/09/05 12:34:50;;;;;;;3.92;1.50;;;;;;;30.60;32.96;70176.81;5018453;28;20068;-80
2022/09/05 12:37:24;;;;;;;4.07;1.77;;;;;;;30.46;33.55;70157.94;5041935;28;20038;-79
2022/09/05 12:40:45;;;;;;;5.20;1.70;;;;;;;30.82;33.29;70198.28;5028645;28;20044;-80
2022/09/05 12:43:11;;;;;;;2.78;1.50;;;;;;;30.27;32.10;70139.41;5031137;28;20134;-80
2022/09/05 12:46:01;;;;;;;2.97;1.80;;;;;;;30.27;32.06;70140.00;5028544;28;20065;-81
2022/09/05 12:48:36;;;;;;;3.65;1.55;;;;;;;30.43;32.71;70157.25;5039851;28;20052;-81
2022/09/05 12:51:18;;;;;;;4.28;1.83;;;;;;;30.34;32.63;70148.03;5036596;28;20053;-80
2022/09/05 12:53:48;;;;;;;6.45;1.48;;;;;;;30.16;32.84;70130.06;5026027;28;20041;-80
2022/09/05 12:56:19;;;;;;;6.05;1.67;;;;;;;30.28;33.54;70141.13;5025252;28;20036;-80
2022/09/05 12:58:50;;;;;;;2.42;1.50;;;;;;;30.42;32.36;70156.09;5021774;28;20057;-81
2022/09/05 13:01:23;;;;;;;3.63;1.65;;;;;;;30.07;33.07;70114.78;5028867;28;20040;-80